sensor_id;sensor_type;location;lat;lon;timestamp;temperature;humidity
32614;DHT22;19031;51.400;6.770;2023-12-28T00:02:19;9.40;99.90
32614;DHT22;19031;51.400;6.770;2023-12-28T00:04:45;9.50;99.90
32614;DHT22;19031;51.400;6.770;2023-12-28T00:07:10;9.50;99.90
32614;DHT22;19031;51.400;6.770;2023-12-28T00:09:37;9.50;99.90
32614;DHT22;19031;51.400;6.770;2023-12-28T00:12:03;9.50;99.90
32614;DHT22;19031;51.400;6.770;2023-12-28T00:14:30;9.40;99.90
32614;DHT22;19031;51.400;6.770;2023-12-28T00:16:55;9.50;99.90
32614;DHT22;19031;51.400;6.770;2023-12-28T00:19:21;9.50;99.90
32614;DHT22;19031;51.400;6.770;2023-12-28T00:21:47;9.60;99.90
32614;DHT22;19031;51.400;6.770;2023-12-28T00:24:12;9.50;99.90
32614;DHT22;19031;51.400;6.770;2023-12-28T00:26:38;9.50;99.90
32614;DHT22;19031;51.400;6.770;2023-12-28T00:29:03;9.50;99.90
32614;DHT22;19031;51.400;6.770;2023-12-28T00:31:29;9.60;99.90
32614;DHT22;19031;51.400;6.770;2023-12-28T00:33:54;9.50;99.90
32614;DHT22;19031;51.400;6.770;2023-12-28T00:36:20;9.60;99.90
32614;DHT22;19031;51.400;6.770;2023-12-28T00:38:45;9.60;99.90
32614;DHT22;19031;51.400;6.770;2023-12-28T00:41:11;9.60;99.90
32614;DHT22;19031;51.400;6.770;2023-12-28T00:43:37;9.70;99.90
32614;DHT22;19031;51.400;6.770;2023-12-28T00:46:02;9.70;99.90
32614;DHT22;19031;51.400;6.770;2023-12-28T00:48:28;9.70;99.90
32614;DHT22;19031;51.400;6.770;2023-12-28T00:50:53;9.70;99.90
32614;DHT22;19031;51.400;6.770;2023-12-28T00:53:20;9.70;99.90
32614;DHT22;19031;51.400;6.770;2023-12-28T00:55:46;9.80;99.90
32614;DHT22;19031;51.400;6.770;2023-12-28T00:58:11;9.70;99.90
32614;DHT22;19031;51.400;6.770;2023-12-28T01:00:37;9.80;99.90
32614;DHT22;19031;51.400;6.770;2023-12-28T01:03:03;9.80;99.90
32614;DHT22;19031;51.400;6.770;2023-12-28T01:05:28;9.80;99.90
32614;DHT22;19031;51.400;6.770;2023-12-28T01:07:54;9.70;99.90
32614;DHT22;19031;51.400;6.770;2023-12-28T01:10:19;9.80;99.90
32614;DHT22;19031;51.400;6.770;2023-12-28T01:12:45;9.80;99.90
32614;DHT22;19031;51.400;6.770;2023-12-28T01:15:11;9.70;99.90
32614;DHT22;19031;51.400;6.770;2023-12-28T01:17:37;9.80;99.90
32614;DHT22;19031;51.400;6.770;2023-12-28T01:20:03;9.80;99.90
32614;DHT22;19031;51.400;6.770;2023-12-28T01:22:29;9.80;99.90
32614;DHT22;19031;51.400;6.770;2023-12-28T01:24:55;9.80;99.90
32614;DHT22;19031;51.400;6.770;2023-12-28T01:27:20;9.80;99.90
32614;DHT22;19031;51.400;6.770;2023-12-28T01:29:46;9.80;99.90
32614;DHT22;19031;51.400;6.770;2023-12-28T01:32:11;9.80;99.90
32614;DHT22;19031;51.400;6.770;2023-12-28T01:34:37;9.80;99.90
32614;DHT22;19031;51.400;6.770;2023-12-28T01:37:02;9.80;99.90
32614;DHT22;19031;51.400;6.770;2023-12-28T01:39:28;9.80;99.90
32614;DHT22;19031;51.400;6.770;2023-12-28T01:41:53;9.90;99.90
32614;DHT22;19031;51.400;6.770;2023-12-28T01:44:19;9.80;99.90
32614;DHT22;19031;51.400;6.770;2023-12-28T01:46:45;9.80;99.90
32614;DHT22;19031;51.400;6.770;2023-12-28T01:49:13;9.80;99.90
32614;DHT22;19031;51.400;6.770;2023-12-28T01:51:40;9.90;99.90
32614;DHT22;19031;51.400;6.770;2023-12-28T01:54:06;9.80;99.90
32614;DHT22;19031;51.400;6.770;2023-12-28T01:56:31;9.80;99.90
32614;DHT22;19031;51.400;6.770;2023-12-28T01:58:57;9.80;99.90
32614;DHT22;19031;51.400;6.770;2023-12-28T02:01:23;9.80;99.90
32614;DHT22;19031;51.400;6.770;2023-12-28T02:03:51;9.80;99.90
32614;DHT22;19031;51.400;6.770;2023-12-28T02:06:16;9.80;99.90
32614;DHT22;19031;51.400;6.770;2023-12-28T02:08:42;9.80;99.90
32614;DHT22;19031;51.400;6.770;2023-12-28T02:11:08;9.90;99.90
32614;DHT22;19031;51.400;6.770;2023-12-28T02:13:33;9.90;99.90
32614;DHT22;19031;51.400;6.770;2023-12-28T02:16:08;9.90;99.90
32614;DHT22;19031;51.400;6.770;2023-12-28T02:18:39;10.00;99.90
32614;DHT22;19031;51.400;6.770;2023-12-28T02:21:08;9.90;99.90
32614;DHT22;19031;51.400;6.770;2023-12-28T02:23:34;9.90;99.90
32614;DHT22;19031;51.400;6.770;2023-12-28T02:26:00;9.90;99.90
32614;DHT22;19031;51.400;6.770;2023-12-28T02:28:26;10.00;99.90
32614;DHT22;19031;51.400;6.770;2023-12-28T02:30:52;9.90;99.90
32614;DHT22;19031;51.400;6.770;2023-12-28T02:33:38;10.00;99.90
32614;DHT22;19031;51.400;6.770;2023-12-28T02:36:13;10.00;99.90
32614;DHT22;19031;51.400;6.770;2023-12-28T02:38:41;9.90;99.90
32614;DHT22;19031;51.400;6.770;2023-12-28T02:41:08;10.00;99.90
32614;DHT22;19031;51.400;6.770;2023-12-28T02:43:34;9.90;99.90
32614;DHT22;19031;51.400;6.770;2023-12-28T02:46:00;9.90;99.90
32614;DHT22;19031;51.400;6.770;2023-12-28T02:48:26;10.00;99.90
32614;DHT22;19031;51.400;6.770;2023-12-28T02:50:51;10.00;99.90
32614;DHT22;19031;51.400;6.770;2023-12-28T02:53:17;9.90;99.90
32614;DHT22;19031;51.400;6.770;2023-12-28T02:55:42;9.90;99.90
32614;DHT22;19031;51.400;6.770;2023-12-28T02:58:08;9.90;99.90
32614;DHT22;19031;51.400;6.770;2023-12-28T03:00:33;9.90;99.90
32614;DHT22;19031;51.400;6.770;2023-12-28T03:02:59;9.80;99.90
32614;DHT22;19031;51.400;6.770;2023-12-28T03:05:24;9.90;99.90
32614;DHT22;19031;51.400;6.770;2023-12-28T03:07:50;9.80;99.90
32614;DHT22;19031;51.400;6.770;2023-12-28T03:10:16;9.90;99.90
32614;DHT22;19031;51.400;6.770;2023-12-28T03:12:41;9.90;99.90
32614;DHT22;19031;51.400;6.770;2023-12-28T03:15:07;9.90;99.90
32614;DHT22;19031;51.400;6.770;2023-12-28T03:17:33;9.90;99.90
32614;DHT22;19031;51.400;6.770;2023-12-28T03:19:59;9.90;99.90
32614;DHT22;19031;51.400;6.770;2023-12-28T03:22:24;9.90;99.90
32614;DHT22;19031;51.400;6.770;2023-12-28T03:24:50;10.00;99.90
32614;DHT22;19031;51.400;6.770;2023-12-28T03:27:16;10.00;99.90
32614;DHT22;19031;51.400;6.770;2023-12-28T03:29:42;10.00;99.90
32614;DHT22;19031;51.400;6.770;2023-12-28T03:32:08;10.00;99.90
32614;DHT22;19031;51.400;6.770;2023-12-28T03:34:34;10.00;99.90
32614;DHT22;19031;51.400;6.770;2023-12-28T03:37:00;10.00;99.90
32614;DHT22;19031;51.400;6.770;2023-12-28T03:39:26;9.90;99.90
32614;DHT22;19031;51.400;6.770;2023-12-28T03:41:52;9.90;99.90
32614;DHT22;19031;51.400;6.770;2023-12-28T03:44:19;9.90;99.90
32614;DHT22;19031;51.400;6.770;2023-12-28T03:46:47;9.90;99.90
32614;DHT22;19031;51.400;6.770;2023-12-28T03:49:18;10.00;99.90
32614;DHT22;19031;51.400;6.770;2023-12-28T03:51:44;10.00;99.90
32614;DHT22;19031;51.400;6.770;2023-12-28T03:54:09;10.00;99.90
32614;DHT22;19031;51.400;6.770;2023-12-28T03:56:35;9.90;99.90
32614;DHT22;19031;51.400;6.770;2023-12-28T03:59:01;9.90;99.90
32614;DHT22;19031;51.400;6.770;2023-12-28T04:01:26;10.00;99.90
32614;DHT22;19031;51.400;6.770;2023-12-28T04:03:52;9.90;99.90
32614;DHT22;19031;51.400;6.770;2023-12-28T04:06:17;10.00;99.90
32614;DHT22;19031;51.400;6.770;2023-12-28T04:08:43;9.80;99.90
32614;DHT22;19031;51.400;6.770;2023-12-28T04:11:09;9.90;99.90
32614;DHT22;19031;51.400;6.770;2023-12-28T04:13:35;9.90;99.90
32614;DHT22;19031;51.400;6.770;2023-12-28T04:16:01;9.90;99.90
32614;DHT22;19031;51.400;6.770;2023-12-28T04:18:26;9.90;99.90
32614;DHT22;19031;51.400;6.770;2023-12-28T04:20:52;9.90;99.90
32614;DHT22;19031;51.400;6.770;2023-12-28T04:23:18;9.90;99.90
32614;DHT22;19031;51.400;6.770;2023-12-28T04:25:43;10.00;99.90
32614;DHT22;19031;51.400;6.770;2023-12-28T04:28:09;9.90;99.90
32614;DHT22;19031;51.400;6.770;2023-12-28T04:30:34;10.00;99.90
32614;DHT22;19031;51.400;6.770;2023-12-28T04:33:01;10.00;99.90
32614;DHT22;19031;51.400;6.770;2023-12-28T04:35:26;10.00;99.90
32614;DHT22;19031;51.400;6.770;2023-12-28T04:37:52;10.00;99.90
32614;DHT22;19031;51.400;6.770;2023-12-28T04:40:18;10.00;99.90
32614;DHT22;19031;51.400;6.770;2023-12-28T04:42:43;10.10;99.90
32614;DHT22;19031;51.400;6.770;2023-12-28T04:45:09;10.00;99.90
32614;DHT22;19031;51.400;6.770;2023-12-28T04:47:38;10.10;99.90
32614;DHT22;19031;51.400;6.770;2023-12-28T04:50:04;10.10;99.90
32614;DHT22;19031;51.400;6.770;2023-12-28T04:52:31;10.00;99.90
32614;DHT22;19031;51.400;6.770;2023-12-28T04:54:56;10.10;99.90
32614;DHT22;19031;51.400;6.770;2023-12-28T04:57:22;10.10;99.90
32614;DHT22;19031;51.400;6.770;2023-12-28T04:59:53;10.10;99.90
32614;DHT22;19031;51.400;6.770;2023-12-28T05:02:18;10.00;99.90
32614;DHT22;19031;51.400;6.770;2023-12-28T05:04:44;10.10;99.90
32614;DHT22;19031;51.400;6.770;2023-12-28T05:07:10;10.10;99.90
32614;DHT22;19031;51.400;6.770;2023-12-28T05:09:36;10.10;99.90
32614;DHT22;19031;51.400;6.770;2023-12-28T05:12:01;10.10;99.90
32614;DHT22;19031;51.400;6.770;2023-12-28T05:14:27;10.10;99.90
32614;DHT22;19031;51.400;6.770;2023-12-28T05:16:53;10.10;99.90
32614;DHT22;19031;51.400;6.770;2023-12-28T05:19:18;10.20;99.90
32614;DHT22;19031;51.400;6.770;2023-12-28T05:21:44;10.20;99.90
32614;DHT22;19031;51.400;6.770;2023-12-28T05:24:10;10.20;99.90
32614;DHT22;19031;51.400;6.770;2023-12-28T05:26:35;10.20;99.90
32614;DHT22;19031;51.400;6.770;2023-12-28T05:29:01;10.20;99.90
32614;DHT22;19031;51.400;6.770;2023-12-28T05:31:26;10.30;99.90
32614;DHT22;19031;51.400;6.770;2023-12-28T05:33:52;10.20;99.90
32614;DHT22;19031;51.400;6.770;2023-12-28T05:36:18;10.20;99.90
32614;DHT22;19031;51.400;6.770;2023-12-28T05:38:44;10.30;99.90
32614;DHT22;19031;51.400;6.770;2023-12-28T05:41:10;10.20;99.90
32614;DHT22;19031;51.400;6.770;2023-12-28T05:43:36;10.30;99.90
32614;DHT22;19031;51.400;6.770;2023-12-28T05:46:01;10.30;99.90
32614;DHT22;19031;51.400;6.770;2023-12-28T05:48:27;10.30;99.90
32614;DHT22;19031;51.400;6.770;2023-12-28T05:50:52;10.30;99.90
32614;DHT22;19031;51.400;6.770;2023-12-28T05:53:18;10.30;99.90
32614;DHT22;19031;51.400;6.770;2023-12-28T05:55:44;10.30;99.90
32614;DHT22;19031;51.400;6.770;2023-12-28T05:58:09;10.30;99.90
32614;DHT22;19031;51.400;6.770;2023-12-28T06:00:35;10.30;99.90
32614;DHT22;19031;51.400;6.770;2023-12-28T06:03:07;10.30;99.90
32614;DHT22;19031;51.400;6.770;2023-12-28T06:05:33;10.30;99.90
32614;DHT22;19031;51.400;6.770;2023-12-28T06:07:59;10.20;99.90
32614;DHT22;19031;51.400;6.770;2023-12-28T06:10:24;10.30;99.90
32614;DHT22;19031;51.400;6.770;2023-12-28T06:12:50;10.30;99.90
32614;DHT22;19031;51.400;6.770;2023-12-28T06:15:16;10.30;99.90
32614;DHT22;19031;51.400;6.770;2023-12-28T06:17:41;10.20;99.90
32614;DHT22;19031;51.400;6.770;2023-12-28T06:20:07;10.20;99.90
32614;DHT22;19031;51.400;6.770;2023-12-28T06:22:36;10.30;99.90
32614;DHT22;19031;51.400;6.770;2023-12-28T06:25:02;10.20;99.90
32614;DHT22;19031;51.400;6.770;2023-12-28T06:27:29;10.20;99.90
32614;DHT22;19031;51.400;6.770;2023-12-28T06:29:54;10.20;99.90
32614;DHT22;19031;51.400;6.770;2023-12-28T06:32:20;10.10;99.90
32614;DHT22;19031;51.400;6.770;2023-12-28T06:34:46;10.10;99.90
32614;DHT22;19031;51.400;6.770;2023-12-28T06:37:11;10.20;99.90
32614;DHT22;19031;51.400;6.770;2023-12-28T06:39:37;10.20;99.90
32614;DHT22;19031;51.400;6.770;2023-12-28T06:42:04;10.10;99.90
32614;DHT22;19031;51.400;6.770;2023-12-28T06:44:29;10.10;99.90
32614;DHT22;19031;51.400;6.770;2023-12-28T06:46:55;10.10;99.90
32614;DHT22;19031;51.400;6.770;2023-12-28T06:49:20;10.10;99.90
32614;DHT22;19031;51.400;6.770;2023-12-28T06:51:46;10.10;99.90
32614;DHT22;19031;51.400;6.770;2023-12-28T06:54:11;10.10;99.90
32614;DHT22;19031;51.400;6.770;2023-12-28T06:56:37;10.10;99.90
32614;DHT22;19031;51.400;6.770;2023-12-28T06:59:03;10.10;99.90
32614;DHT22;19031;51.400;6.770;2023-12-28T07:01:28;10.10;99.90
32614;DHT22;19031;51.400;6.770;2023-12-28T07:03:54;10.20;99.90
32614;DHT22;19031;51.400;6.770;2023-12-28T07:06:19;10.10;99.90
32614;DHT22;19031;51.400;6.770;2023-12-28T07:08:45;10.20;99.90
32614;DHT22;19031;51.400;6.770;2023-12-28T07:11:11;10.20;99.90
32614;DHT22;19031;51.400;6.770;2023-12-28T07:13:37;10.20;99.90
32614;DHT22;19031;51.400;6.770;2023-12-28T07:16:02;10.30;99.90
32614;DHT22;19031;51.400;6.770;2023-12-28T07:18:28;10.30;99.90
32614;DHT22;19031;51.400;6.770;2023-12-28T07:20:54;10.20;99.90
32614;DHT22;19031;51.400;6.770;2023-12-28T07:23:19;10.20;99.90
32614;DHT22;19031;51.400;6.770;2023-12-28T07:25:45;10.30;99.90
32614;DHT22;19031;51.400;6.770;2023-12-28T07:28:11;10.20;99.90
32614;DHT22;19031;51.400;6.770;2023-12-28T07:30:37;10.20;99.90
32614;DHT22;19031;51.400;6.770;2023-12-28T07:33:03;10.30;99.90
32614;DHT22;19031;51.400;6.770;2023-12-28T07:35:28;10.30;99.90
32614;DHT22;19031;51.400;6.770;2023-12-28T07:37:54;10.30;99.90
32614;DHT22;19031;51.400;6.770;2023-12-28T07:40:20;10.40;99.90
32614;DHT22;19031;51.400;6.770;2023-12-28T07:42:45;10.40;99.90
32614;DHT22;19031;51.400;6.770;2023-12-28T07:45:11;10.40;99.90
32614;DHT22;19031;51.400;6.770;2023-12-28T07:47:36;10.40;99.90
32614;DHT22;19031;51.400;6.770;2023-12-28T07:50:02;10.40;99.90
32614;DHT22;19031;51.400;6.770;2023-12-28T07:52:29;10.40;99.90
32614;DHT22;19031;51.400;6.770;2023-12-28T07:54:54;10.40;99.90
32614;DHT22;19031;51.400;6.770;2023-12-28T07:57:20;10.50;99.90
32614;DHT22;19031;51.400;6.770;2023-12-28T07:59:46;10.50;99.90
32614;DHT22;19031;51.400;6.770;2023-12-28T08:02:12;10.50;99.90
32614;DHT22;19031;51.400;6.770;2023-12-28T08:04:37;10.50;99.90
32614;DHT22;19031;51.400;6.770;2023-12-28T08:07:03;10.50;99.90
32614;DHT22;19031;51.400;6.770;2023-12-28T08:09:29;10.50;99.90
32614;DHT22;19031;51.400;6.770;2023-12-28T08:11:55;10.50;99.90
32614;DHT22;19031;51.400;6.770;2023-12-28T08:14:21;10.50;99.90
32614;DHT22;19031;51.400;6.770;2023-12-28T08:16:46;10.50;99.90
32614;DHT22;19031;51.400;6.770;2023-12-28T08:19:12;10.50;99.90
32614;DHT22;19031;51.400;6.770;2023-12-28T08:21:37;10.50;99.90
32614;DHT22;19031;51.400;6.770;2023-12-28T08:24:03;10.50;99.90
32614;DHT22;19031;51.400;6.770;2023-12-28T08:26:29;10.50;99.90
32614;DHT22;19031;51.400;6.770;2023-12-28T08:28:54;10.60;99.90
32614;DHT22;19031;51.400;6.770;2023-12-28T08:31:21;10.50;99.90
32614;DHT22;19031;51.400;6.770;2023-12-28T08:33:46;10.50;99.90
32614;DHT22;19031;51.400;6.770;2023-12-28T08:36:12;10.60;99.90
32614;DHT22;19031;51.400;6.770;2023-12-28T08:38:38;10.60;99.90
32614;DHT22;19031;51.400;6.770;2023-12-28T08:41:04;10.70;99.90
32614;DHT22;19031;51.400;6.770;2023-12-28T08:43:37;10.70;99.90
32614;DHT22;19031;51.400;6.770;2023-12-28T08:46:03;10.70;99.90
32614;DHT22;19031;51.400;6.770;2023-12-28T08:48:28;10.60;99.90
32614;DHT22;19031;51.400;6.770;2023-12-28T08:50:54;10.70;99.90
32614;DHT22;19031;51.400;6.770;2023-12-28T08:53:19;10.70;99.90
32614;DHT22;19031;51.400;6.770;2023-12-28T08:55:45;10.70;99.90
32614;DHT22;19031;51.400;6.770;2023-12-28T08:58:10;10.80;99.90
32614;DHT22;19031;51.400;6.770;2023-12-28T09:00:36;10.70;99.90
32614;DHT22;19031;51.400;6.770;2023-12-28T09:03:02;10.70;99.90
32614;DHT22;19031;51.400;6.770;2023-12-28T09:05:27;10.70;99.90
32614;DHT22;19031;51.400;6.770;2023-12-28T09:07:53;10.80;99.90
32614;DHT22;19031;51.400;6.770;2023-12-28T09:10:18;10.70;99.90
32614;DHT22;19031;51.400;6.770;2023-12-28T09:12:44;10.80;99.90
32614;DHT22;19031;51.400;6.770;2023-12-28T09:15:09;10.90;99.90
32614;DHT22;19031;51.400;6.770;2023-12-28T09:17:35;10.90;99.90
32614;DHT22;19031;51.400;6.770;2023-12-28T09:20:01;10.90;99.90
32614;DHT22;19031;51.400;6.770;2023-12-28T09:22:27;10.90;99.90
32614;DHT22;19031;51.400;6.770;2023-12-28T09:24:53;10.90;99.90
32614;DHT22;19031;51.400;6.770;2023-12-28T09:27:19;11.00;99.90
32614;DHT22;19031;51.400;6.770;2023-12-28T09:29:44;11.10;99.90
32614;DHT22;19031;51.400;6.770;2023-12-28T09:32:10;11.10;99.90
32614;DHT22;19031;51.400;6.770;2023-12-28T09:34:35;11.10;99.90
32614;DHT22;19031;51.400;6.770;2023-12-28T09:37:01;11.10;99.90
32614;DHT22;19031;51.400;6.770;2023-12-28T09:39:26;11.10;99.90
32614;DHT22;19031;51.400;6.770;2023-12-28T09:41:59;11.20;99.90
32614;DHT22;19031;51.400;6.770;2023-12-28T09:44:28;11.30;99.90
32614;DHT22;19031;51.400;6.770;2023-12-28T09:46:55;11.20;99.90
32614;DHT22;19031;51.400;6.770;2023-12-28T09:49:23;11.20;99.90
32614;DHT22;19031;51.400;6.770;2023-12-28T09:51:48;11.20;99.90
32614;DHT22;19031;51.400;6.770;2023-12-28T09:54:14;11.10;99.90
32614;DHT22;19031;51.400;6.770;2023-12-28T09:56:40;11.20;99.90
32614;DHT22;19031;51.400;6.770;2023-12-28T09:59:07;11.20;99.90
32614;DHT22;19031;51.400;6.770;2023-12-28T10:01:34;11.30;99.90
32614;DHT22;19031;51.400;6.770;2023-12-28T10:04:00;11.30;99.90
32614;DHT22;19031;51.400;6.770;2023-12-28T10:06:28;11.30;99.90
32614;DHT22;19031;51.400;6.770;2023-12-28T10:08:54;11.30;99.90
32614;DHT22;19031;51.400;6.770;2023-12-28T10:11:21;11.40;99.90
32614;DHT22;19031;51.400;6.770;2023-12-28T10:13:48;11.40;99.90
32614;DHT22;19031;51.400;6.770;2023-12-28T10:16:15;11.60;99.90
32614;DHT22;19031;51.400;6.770;2023-12-28T10:18:45;11.50;99.90
32614;DHT22;19031;51.400;6.770;2023-12-28T10:21:11;11.50;99.90
32614;DHT22;19031;51.400;6.770;2023-12-28T10:23:38;11.50;99.90
32614;DHT22;19031;51.400;6.770;2023-12-28T10:26:04;11.50;99.90
32614;DHT22;19031;51.400;6.770;2023-12-28T10:28:32;11.50;99.90
32614;DHT22;19031;51.400;6.770;2023-12-28T10:30:58;11.50;99.90
32614;DHT22;19031;51.400;6.770;2023-12-28T10:33:24;11.50;99.90
32614;DHT22;19031;51.400;6.770;2023-12-28T10:35:53;11.50;99.90
32614;DHT22;19031;51.400;6.770;2023-12-28T10:38:22;11.50;99.90
32614;DHT22;19031;51.400;6.770;2023-12-28T10:40:49;11.50;99.90
32614;DHT22;19031;51.400;6.770;2023-12-28T10:43:16;11.40;99.90
32614;DHT22;19031;51.400;6.770;2023-12-28T10:45:47;11.40;99.90
32614;DHT22;19031;51.400;6.770;2023-12-28T10:48:13;11.40;99.90
32614;DHT22;19031;51.400;6.770;2023-12-28T10:50:41;11.50;99.90
32614;DHT22;19031;51.400;6.770;2023-12-28T10:56:20;11.60;99.90
32614;DHT22;19031;51.400;6.770;2023-12-28T11:01:12;11.50;99.90
32614;DHT22;19031;51.400;6.770;2023-12-28T11:03:44;11.50;99.90
32614;DHT22;19031;51.400;6.770;2023-12-28T11:06:13;11.50;99.90
32614;DHT22;19031;51.400;6.770;2023-12-28T11:08:41;11.60;99.90
32614;DHT22;19031;51.400;6.770;2023-12-28T11:11:09;11.60;99.90
32614;DHT22;19031;51.400;6.770;2023-12-28T11:13:37;11.60;99.90
32614;DHT22;19031;51.400;6.770;2023-12-28T11:16:04;11.60;99.90
32614;DHT22;19031;51.400;6.770;2023-12-28T11:18:30;11.80;99.90
32614;DHT22;19031;51.400;6.770;2023-12-28T11:20:56;11.80;99.90
32614;DHT22;19031;51.400;6.770;2023-12-28T11:23:21;11.80;99.90
32614;DHT22;19031;51.400;6.770;2023-12-28T11:25:47;11.80;99.90
32614;DHT22;19031;51.400;6.770;2023-12-28T11:28:13;11.80;99.90
32614;DHT22;19031;51.400;6.770;2023-12-28T11:30:41;11.80;99.90
32614;DHT22;19031;51.400;6.770;2023-12-28T11:33:10;11.80;99.90
32614;DHT22;19031;51.400;6.770;2023-12-28T11:35:39;11.90;99.90
32614;DHT22;19031;51.400;6.770;2023-12-28T11:38:10;11.80;99.90
32614;DHT22;19031;51.400;6.770;2023-12-28T11:40:40;11.80;99.90
32614;DHT22;19031;51.400;6.770;2023-12-28T11:43:15;11.80;99.90
32614;DHT22;19031;51.400;6.770;2023-12-28T11:45:52;11.90;99.90
32614;DHT22;19031;51.400;6.770;2023-12-28T11:48:23;11.90;99.90
32614;DHT22;19031;51.400;6.770;2023-12-28T11:50:52;12.00;99.90
32614;DHT22;19031;51.400;6.770;2023-12-28T11:53:19;12.00;99.90
32614;DHT22;19031;51.400;6.770;2023-12-28T11:55:46;12.00;99.90
32614;DHT22;19031;51.400;6.770;2023-12-28T11:58:11;12.10;99.90
32614;DHT22;19031;51.400;6.770;2023-12-28T12:00:37;12.00;99.90
32614;DHT22;19031;51.400;6.770;2023-12-28T12:03:03;12.10;99.90
32614;DHT22;19031;51.400;6.770;2023-12-28T12:05:28;12.20;99.90
32614;DHT22;19031;51.400;6.770;2023-12-28T12:07:55;12.10;99.90
32614;DHT22;19031;51.400;6.770;2023-12-28T12:10:20;12.10;99.90
32614;DHT22;19031;51.400;6.770;2023-12-28T12:12:47;12.10;99.90
32614;DHT22;19031;51.400;6.770;2023-12-28T12:15:13;12.20;99.90
32614;DHT22;19031;51.400;6.770;2023-12-28T12:17:39;12.20;99.90
32614;DHT22;19031;51.400;6.770;2023-12-28T12:20:05;12.30;99.90
32614;DHT22;19031;51.400;6.770;2023-12-28T12:22:32;12.20;99.90
32614;DHT22;19031;51.400;6.770;2023-12-28T12:25:00;12.20;99.90
32614;DHT22;19031;51.400;6.770;2023-12-28T12:27:29;12.10;99.90
32614;DHT22;19031;51.400;6.770;2023-12-28T12:29:54;12.20;99.90
32614;DHT22;19031;51.400;6.770;2023-12-28T12:32:20;12.10;99.90
32614;DHT22;19031;51.400;6.770;2023-12-28T12:34:47;12.10;99.90
32614;DHT22;19031;51.400;6.770;2023-12-28T12:37:13;12.20;99.90
32614;DHT22;19031;51.400;6.770;2023-12-28T12:39:38;12.30;99.90
32614;DHT22;19031;51.400;6.770;2023-12-28T12:42:04;12.30;99.90
32614;DHT22;19031;51.400;6.770;2023-12-28T12:44:30;12.30;99.90
32614;DHT22;19031;51.400;6.770;2023-12-28T12:46:59;12.40;99.90
32614;DHT22;19031;51.400;6.770;2023-12-28T12:49:25;12.30;99.90
32614;DHT22;19031;51.400;6.770;2023-12-28T12:51:51;12.40;99.90
32614;DHT22;19031;51.400;6.770;2023-12-28T12:54:17;12.40;99.90
32614;DHT22;19031;51.400;6.770;2023-12-28T12:56:46;12.40;99.90
32614;DHT22;19031;51.400;6.770;2023-12-28T12:59:11;12.30;99.90
32614;DHT22;19031;51.400;6.770;2023-12-28T13:01:45;12.20;99.90
32614;DHT22;19031;51.400;6.770;2023-12-28T13:04:14;12.20;99.90
32614;DHT22;19031;51.400;6.770;2023-12-28T13:06:41;12.20;99.90
32614;DHT22;19031;51.400;6.770;2023-12-28T13:09:07;12.10;99.90
32614;DHT22;19031;51.400;6.770;2023-12-28T13:11:36;12.10;99.90
32614;DHT22;19031;51.400;6.770;2023-12-28T13:14:01;12.10;99.90
32614;DHT22;19031;51.400;6.770;2023-12-28T13:16:27;12.10;99.90
32614;DHT22;19031;51.400;6.770;2023-12-28T13:18:53;12.20;99.90
32614;DHT22;19031;51.400;6.770;2023-12-28T13:21:18;12.10;99.90
32614;DHT22;19031;51.400;6.770;2023-12-28T13:23:44;12.10;99.90
32614;DHT22;19031;51.400;6.770;2023-12-28T13:26:09;12.10;99.90
32614;DHT22;19031;51.400;6.770;2023-12-28T13:28:35;12.20;99.90
32614;DHT22;19031;51.400;6.770;2023-12-28T13:31:01;12.20;99.90
32614;DHT22;19031;51.400;6.770;2023-12-28T13:33:26;12.20;99.90
32614;DHT22;19031;51.400;6.770;2023-12-28T13:35:52;12.10;99.90
32614;DHT22;19031;51.400;6.770;2023-12-28T13:38:18;12.10;99.90
32614;DHT22;19031;51.400;6.770;2023-12-28T13:40:43;12.10;99.90
32614;DHT22;19031;51.400;6.770;2023-12-28T13:43:10;12.10;99.90
32614;DHT22;19031;51.400;6.770;2023-12-28T13:45:35;12.10;99.90
32614;DHT22;19031;51.400;6.770;2023-12-28T13:48:01;12.10;99.90
32614;DHT22;19031;51.400;6.770;2023-12-28T13:50:27;12.10;99.90
32614;DHT22;19031;51.400;6.770;2023-12-28T13:52:53;12.10;99.90
32614;DHT22;19031;51.400;6.770;2023-12-28T13:55:19;12.00;99.90
32614;DHT22;19031;51.400;6.770;2023-12-28T13:57:45;12.00;99.90
32614;DHT22;19031;51.400;6.770;2023-12-28T14:00:11;12.00;99.90
32614;DHT22;19031;51.400;6.770;2023-12-28T14:02:37;12.00;99.90
32614;DHT22;19031;51.400;6.770;2023-12-28T14:05:02;12.00;99.90
32614;DHT22;19031;51.400;6.770;2023-12-28T14:07:28;11.90;99.90
32614;DHT22;19031;51.400;6.770;2023-12-28T14:09:54;11.90;99.90
32614;DHT22;19031;51.400;6.770;2023-12-28T14:12:19;11.90;99.90
32614;DHT22;19031;51.400;6.770;2023-12-28T14:14:45;12.00;99.90
32614;DHT22;19031;51.400;6.770;2023-12-28T14:17:10;11.80;99.90
32614;DHT22;19031;51.400;6.770;2023-12-28T14:19:36;11.90;99.90
32614;DHT22;19031;51.400;6.770;2023-12-28T14:22:02;11.80;99.90
32614;DHT22;19031;51.400;6.770;2023-12-28T14:24:27;11.80;99.90
32614;DHT22;19031;51.400;6.770;2023-12-28T14:26:54;11.80;99.90
32614;DHT22;19031;51.400;6.770;2023-12-28T14:29:21;11.80;99.90
32614;DHT22;19031;51.400;6.770;2023-12-28T14:31:47;11.80;99.90
32614;DHT22;19031;51.400;6.770;2023-12-28T14:34:13;11.80;99.90
32614;DHT22;19031;51.400;6.770;2023-12-28T14:36:39;11.80;99.90
32614;DHT22;19031;51.400;6.770;2023-12-28T14:39:05;11.60;99.90
32614;DHT22;19031;51.400;6.770;2023-12-28T14:41:35;11.60;99.90
32614;DHT22;19031;51.400;6.770;2023-12-28T14:44:01;11.50;99.90
32614;DHT22;19031;51.400;6.770;2023-12-28T14:46:26;11.40;99.90
32614;DHT22;19031;51.400;6.770;2023-12-28T14:48:52;11.50;99.90
32614;DHT22;19031;51.400;6.770;2023-12-28T14:51:18;11.40;99.90
32614;DHT22;19031;51.400;6.770;2023-12-28T14:53:44;11.50;99.90
32614;DHT22;19031;51.400;6.770;2023-12-28T14:56:10;11.40;99.90
32614;DHT22;19031;51.400;6.770;2023-12-28T14:58:40;11.40;99.90
32614;DHT22;19031;51.400;6.770;2023-12-28T15:01:10;11.40;99.90
32614;DHT22;19031;51.400;6.770;2023-12-28T15:03:35;11.40;99.90
32614;DHT22;19031;51.400;6.770;2023-12-28T15:06:04;11.30;99.90
32614;DHT22;19031;51.400;6.770;2023-12-28T15:08:29;11.30;99.90
32614;DHT22;19031;51.400;6.770;2023-12-28T15:10:56;11.30;99.90
32614;DHT22;19031;51.400;6.770;2023-12-28T15:13:22;11.30;99.90
32614;DHT22;19031;51.400;6.770;2023-12-28T15:15:48;11.20;99.90
32614;DHT22;19031;51.400;6.770;2023-12-28T15:18:14;11.30;99.90
32614;DHT22;19031;51.400;6.770;2023-12-28T15:20:46;11.20;99.90
32614;DHT22;19031;51.400;6.770;2023-12-28T15:23:15;11.10;99.90
32614;DHT22;19031;51.400;6.770;2023-12-28T15:25:44;11.20;99.90
32614;DHT22;19031;51.400;6.770;2023-12-28T15:28:09;11.20;99.90
32614;DHT22;19031;51.400;6.770;2023-12-28T15:30:35;11.10;99.90
32614;DHT22;19031;51.400;6.770;2023-12-28T15:33:01;11.20;99.90
32614;DHT22;19031;51.400;6.770;2023-12-28T15:35:27;11.10;99.90